sensor_id;sensor_type;location;lat;lon;timestamp;temperature;humidity
28171;DHT22;15458;53.346;-1.688;2022-09-14T00:01:26;10.50;99.90
28171;DHT22;15458;53.346;-1.688;2022-09-14T00:04:14;10.40;99.90
28171;DHT22;15458;53.346;-1.688;2022-09-14T00:06:42;10.30;99.90
28171;DHT22;15458;53.346;-1.688;2022-09-14T00:09:10;10.30;99.90
28171;DHT22;15458;53.346;-1.688;2022-09-14T00:11:37;10.10;99.90
28171;DHT22;15458;53.346;-1.688;2022-09-14T00:14:05;10.10;99.90
28171;DHT22;15458;53.346;-1.688;2022-09-14T00:16:33;10.00;99.90
28171;DHT22;15458;53.346;-1.688;2022-09-14T00:19:05;10.10;99.90
28171;DHT22;15458;53.346;-1.688;2022-09-14T00:21:34;10.10;99.90
28171;DHT22;15458;53.346;-1.688;2022-09-14T00:24:00;10.00;99.90
28171;DHT22;15458;53.346;-1.688;2022-09-14T00:26:25;10.00;99.90
28171;DHT22;15458;53.346;-1.688;2022-09-14T00:28:54;10.00;99.90
28171;DHT22;15458;53.346;-1.688;2022-09-14T00:31:21;9.90;99.90
28171;DHT22;15458;53.346;-1.688;2022-09-14T00:33:49;9.90;99.90
28171;DHT22;15458;53.346;-1.688;2022-09-14T00:38:47;9.90;99.90
28171;DHT22;15458;53.346;-1.688;2022-09-14T00:41:20;9.90;99.90
28171;DHT22;15458;53.346;-1.688;2022-09-14T00:44:03;9.90;99.90
28171;DHT22;15458;53.346;-1.688;2022-09-14T00:49:32;9.90;99.90
28171;DHT22;15458;53.346;-1.688;2022-09-14T00:52:16;9.90;99.90
28171;DHT22;15458;53.346;-1.688;2022-09-14T00:54:45;10.00;99.90
28171;DHT22;15458;53.346;-1.688;2022-09-14T00:57:12;10.00;99.90
28171;DHT22;15458;53.346;-1.688;2022-09-14T00:59:42;10.00;99.90
28171;DHT22;15458;53.346;-1.688;2022-09-14T01:02:12;10.00;99.90
28171;DHT22;15458;53.346;-1.688;2022-09-14T01:04:42;10.00;99.90
28171;DHT22;15458;53.346;-1.688;2022-09-14T01:13:12;9.90;99.90
28171;DHT22;15458;53.346;-1.688;2022-09-14T01:18:17;9.90;99.90
28171;DHT22;15458;53.346;-1.688;2022-09-14T01:26:43;9.80;99.90
28171;DHT22;15458;53.346;-1.688;2022-09-14T01:32:13;9.80;99.90
28171;DHT22;15458;53.346;-1.688;2022-09-14T01:34:50;9.80;99.90
28171;DHT22;15458;53.346;-1.688;2022-09-14T01:37:21;9.90;99.90
28171;DHT22;15458;53.346;-1.688;2022-09-14T01:39:52;9.80;99.90
28171;DHT22;15458;53.346;-1.688;2022-09-14T01:42:21;9.70;99.90
28171;DHT22;15458;53.346;-1.688;2022-09-14T01:44:53;9.70;99.90
28171;DHT22;15458;53.346;-1.688;2022-09-14T01:47:34;9.70;99.90
28171;DHT22;15458;53.346;-1.688;2022-09-14T01:50:11;9.70;99.90
28171;DHT22;15458;53.346;-1.688;2022-09-14T01:52:49;9.80;99.90
28171;DHT22;15458;53.346;-1.688;2022-09-14T01:55:20;9.80;99.90
28171;DHT22;15458;53.346;-1.688;2022-09-14T01:57:51;9.80;99.90
28171;DHT22;15458;53.346;-1.688;2022-09-14T02:00:20;9.80;99.90
28171;DHT22;15458;53.346;-1.688;2022-09-14T02:03:03;9.90;99.90
28171;DHT22;15458;53.346;-1.688;2022-09-14T02:05:39;9.90;99.90
28171;DHT22;15458;53.346;-1.688;2022-09-14T02:08:05;9.90;99.90
28171;DHT22;15458;53.346;-1.688;2022-09-14T02:10:32;9.80;99.90
28171;DHT22;15458;53.346;-1.688;2022-09-14T02:12:58;9.90;99.90
28171;DHT22;15458;53.346;-1.688;2022-09-14T02:15:25;9.90;99.90
28171;DHT22;15458;53.346;-1.688;2022-09-14T02:17:52;9.90;99.90
28171;DHT22;15458;53.346;-1.688;2022-09-14T02:20:36;9.90;99.90
28171;DHT22;15458;53.346;-1.688;2022-09-14T02:23:04;9.90;99.90
28171;DHT22;15458;53.346;-1.688;2022-09-14T02:25:32;9.90;99.90
28171;DHT22;15458;53.346;-1.688;2022-09-14T02:27:59;9.90;99.90
28171;DHT22;15458;53.346;-1.688;2022-09-14T02:30:26;9.90;99.90
28171;DHT22;15458;53.346;-1.688;2022-09-14T02:36:09;9.90;99.90
28171;DHT22;15458;53.346;-1.688;2022-09-14T02:38:39;10.00;99.90
28171;DHT22;15458;53.346;-1.688;2022-09-14T02:41:17;9.90;99.90
28171;DHT22;15458;53.346;-1.688;2022-09-14T02:46:27;9.90;99.90
28171;DHT22;15458;53.346;-1.688;2022-09-14T02:49:02;9.90;99.90
28171;DHT22;15458;53.346;-1.688;2022-09-14T02:51:38;9.90;99.90
28171;DHT22;15458;53.346;-1.688;2022-09-14T02:54:13;9.90;99.90
28171;DHT22;15458;53.346;-1.688;2022-09-14T02:56:40;9.90;99.90
28171;DHT22;15458;53.346;-1.688;2022-09-14T02:59:07;9.90;99.90
28171;DHT22;15458;53.346;-1.688;2022-09-14T03:01:33;9.90;99.90
28171;DHT22;15458;53.346;-1.688;2022-09-14T03:03:59;9.90;99.90
28171;DHT22;15458;53.346;-1.688;2022-09-14T03:06:24;9.90;99.90
28171;DHT22;15458;53.346;-1.688;2022-09-14T03:08:50;10.00;99.90
28171;DHT22;15458;53.346;-1.688;2022-09-14T03:11:16;9.90;99.90
28171;DHT22;15458;53.346;-1.688;2022-09-14T03:13:41;9.90;99.90
28171;DHT22;15458;53.346;-1.688;2022-09-14T03:16:10;9.90;99.90
28171;DHT22;15458;53.346;-1.688;2022-09-14T03:18:36;9.90;99.90
28171;DHT22;15458;53.346;-1.688;2022-09-14T03:21:04;9.90;99.90
28171;DHT22;15458;53.346;-1.688;2022-09-14T03:23:37;9.90;99.90
28171;DHT22;15458;53.346;-1.688;2022-09-14T03:26:10;9.90;99.90
28171;DHT22;15458;53.346;-1.688;2022-09-14T03:28:37;9.90;99.90
28171;DHT22;15458;53.346;-1.688;2022-09-14T03:31:04;9.90;99.90
28171;DHT22;15458;53.346;-1.688;2022-09-14T03:33:30;9.90;99.90
28171;DHT22;15458;53.346;-1.688;2022-09-14T03:35:56;9.90;99.90
28171;DHT22;15458;53.346;-1.688;2022-09-14T03:38:22;10.00;99.90
28171;DHT22;15458;53.346;-1.688;2022-09-14T03:40:49;10.00;99.90
28171;DHT22;15458;53.346;-1.688;2022-09-14T03:43:14;10.00;99.90
28171;DHT22;15458;53.346;-1.688;2022-09-14T03:45:40;10.00;99.90
28171;DHT22;15458;53.346;-1.688;2022-09-14T03:48:14;10.00;99.90
28171;DHT22;15458;53.346;-1.688;2022-09-14T03:50:40;10.10;99.90
28171;DHT22;15458;53.346;-1.688;2022-09-14T03:53:06;10.10;99.90
28171;DHT22;15458;53.346;-1.688;2022-09-14T03:55:35;10.10;99.90
28171;DHT22;15458;53.346;-1.688;2022-09-14T03:58:00;10.10;99.90
28171;DHT22;15458;53.346;-1.688;2022-09-14T04:00:26;10.10;99.90
28171;DHT22;15458;53.346;-1.688;2022-09-14T04:02:53;10.10;99.90
28171;DHT22;15458;53.346;-1.688;2022-09-14T04:05:21;10.20;99.90
28171;DHT22;15458;53.346;-1.688;2022-09-14T04:07:49;10.10;99.90
28171;DHT22;15458;53.346;-1.688;2022-09-14T04:10:16;10.10;99.90
28171;DHT22;15458;53.346;-1.688;2022-09-14T04:12:42;10.10;99.90
28171;DHT22;15458;53.346;-1.688;2022-09-14T04:15:08;10.10;99.90
28171;DHT22;15458;53.346;-1.688;2022-09-14T04:17:34;10.10;99.90
28171;DHT22;15458;53.346;-1.688;2022-09-14T04:20:03;10.10;99.90
28171;DHT22;15458;53.346;-1.688;2022-09-14T04:22:33;10.10;99.90
28171;DHT22;15458;53.346;-1.688;2022-09-14T04:25:03;10.10;99.90
28171;DHT22;15458;53.346;-1.688;2022-09-14T04:27:31;10.10;99.90
28171;DHT22;15458;53.346;-1.688;2022-09-14T04:29:57;10.10;99.90
28171;DHT22;15458;53.346;-1.688;2022-09-14T04:32:23;10.10;99.90
28171;DHT22;15458;53.346;-1.688;2022-09-14T04:34:48;10.10;99.90
28171;DHT22;15458;53.346;-1.688;2022-09-14T04:37:14;10.10;99.90
28171;DHT22;15458;53.346;-1.688;2022-09-14T04:39:40;10.20;99.90
28171;DHT22;15458;53.346;-1.688;2022-09-14T04:42:06;10.20;99.90
28171;DHT22;15458;53.346;-1.688;2022-09-14T04:44:32;10.20;99.90
28171;DHT22;15458;53.346;-1.688;2022-09-14T04:46:58;10.20;99.90
28171;DHT22;15458;53.346;-1.688;2022-09-14T04:49:24;10.30;99.90
28171;DHT22;15458;53.346;-1.688;2022-09-14T04:51:50;10.30;99.90
28171;DHT22;15458;53.346;-1.688;2022-09-14T04:54:17;10.30;99.90
28171;DHT22;15458;53.346;-1.688;2022-09-14T04:56:43;10.40;99.90
28171;DHT22;15458;53.346;-1.688;2022-09-14T04:59:10;10.40;99.90
28171;DHT22;15458;53.346;-1.688;2022-09-14T05:01:41;10.40;99.90
28171;DHT22;15458;53.346;-1.688;2022-09-14T05:04:09;10.40;99.90
28171;DHT22;15458;53.346;-1.688;2022-09-14T05:06:43;10.40;99.90
28171;DHT22;15458;53.346;-1.688;2022-09-14T05:09:14;10.40;99.90
28171;DHT22;15458;53.346;-1.688;2022-09-14T05:11:41;10.30;99.90
28171;DHT22;15458;53.346;-1.688;2022-09-14T05:14:10;10.40;99.90
28171;DHT22;15458;53.346;-1.688;2022-09-14T05:16:37;10.30;99.90
28171;DHT22;15458;53.346;-1.688;2022-09-14T05:19:06;10.30;99.90
28171;DHT22;15458;53.346;-1.688;2022-09-14T05:21:34;10.20;99.90
28171;DHT22;15458;53.346;-1.688;2022-09-14T05:24:02;10.20;99.90
28171;DHT22;15458;53.346;-1.688;2022-09-14T05:26:29;10.10;99.90
28171;DHT22;15458;53.346;-1.688;2022-09-14T05:28:57;10.00;99.90
28171;DHT22;15458;53.346;-1.688;2022-09-14T05:31:24;10.00;99.90
28171;DHT22;15458;53.346;-1.688;2022-09-14T05:33:50;10.00;99.90
28171;DHT22;15458;53.346;-1.688;2022-09-14T05:36:17;9.90;99.90
28171;DHT22;15458;53.346;-1.688;2022-09-14T05:38:42;9.90;99.90
28171;DHT22;15458;53.346;-1.688;2022-09-14T05:41:10;9.90;99.90
28171;DHT22;15458;53.346;-1.688;2022-09-14T05:43:36;9.90;99.90
28171;DHT22;15458;53.346;-1.688;2022-09-14T05:46:04;9.80;99.90
28171;DHT22;15458;53.346;-1.688;2022-09-14T05:48:35;9.80;99.90
28171;DHT22;15458;53.346;-1.688;2022-09-14T05:51:08;9.80;99.90
28171;DHT22;15458;53.346;-1.688;2022-09-14T05:53:34;9.80;99.90
28171;DHT22;15458;53.346;-1.688;2022-09-14T05:56:10;9.80;99.90
28171;DHT22;15458;53.346;-1.688;2022-09-14T05:58:41;9.80;99.90
28171;DHT22;15458;53.346;-1.688;2022-09-14T06:01:25;9.80;99.90
28171;DHT22;15458;53.346;-1.688;2022-09-14T06:03:56;9.80;99.90
28171;DHT22;15458;53.346;-1.688;2022-09-14T06:06:22;9.80;99.90
28171;DHT22;15458;53.346;-1.688;2022-09-14T06:08:49;9.80;99.90
28171;DHT22;15458;53.346;-1.688;2022-09-14T06:11:18;9.70;99.90
28171;DHT22;15458;53.346;-1.688;2022-09-14T06:13:44;9.70;99.90
28171;DHT22;15458;53.346;-1.688;2022-09-14T06:16:16;9.70;99.90
28171;DHT22;15458;53.346;-1.688;2022-09-14T06:18:56;9.70;99.90
28171;DHT22;15458;53.346;-1.688;2022-09-14T06:21:30;9.60;99.90
28171;DHT22;15458;53.346;-1.688;2022-09-14T06:24:15;9.60;99.90
28171;DHT22;15458;53.346;-1.688;2022-09-14T06:26:43;9.60;99.90
28171;DHT22;15458;53.346;-1.688;2022-09-14T06:29:12;9.70;99.90
28171;DHT22;15458;53.346;-1.688;2022-09-14T06:31:39;9.70;99.90
28171;DHT22;15458;53.346;-1.688;2022-09-14T06:34:04;9.70;99.90
28171;DHT22;15458;53.346;-1.688;2022-09-14T06:36:33;9.70;99.90
28171;DHT22;15458;53.346;-1.688;2022-09-14T06:39:01;9.70;99.90
28171;DHT22;15458;53.346;-1.688;2022-09-14T06:41:27;9.80;99.90
28171;DHT22;15458;53.346;-1.688;2022-09-14T06:43:58;9.80;99.90
28171;DHT22;15458;53.346;-1.688;2022-09-14T06:46:26;9.80;99.90
28171;DHT22;15458;53.346;-1.688;2022-09-14T06:49:01;9.90;99.90
28171;DHT22;15458;53.346;-1.688;2022-09-14T06:51:33;9.90;99.90
28171;DHT22;15458;53.346;-1.688;2022-09-14T06:54:00;10.00;99.90
28171;DHT22;15458;53.346;-1.688;2022-09-14T06:56:34;10.00;99.90
28171;DHT22;15458;53.346;-1.688;2022-09-14T06:59:06;10.00;99.90
28171;DHT22;15458;53.346;-1.688;2022-09-14T07:01:33;10.00;99.90
28171;DHT22;15458;53.346;-1.688;2022-09-14T07:03:59;10.10;99.90
28171;DHT22;15458;53.346;-1.688;2022-09-14T07:06:30;10.10;99.90
28171;DHT22;15458;53.346;-1.688;2022-09-14T07:08:56;10.20;99.90
28171;DHT22;15458;53.346;-1.688;2022-09-14T07:11:24;10.20;99.90
28171;DHT22;15458;53.346;-1.688;2022-09-14T07:13:53;10.20;99.90
28171;DHT22;15458;53.346;-1.688;2022-09-14T07:16:20;10.30;99.90
28171;DHT22;15458;53.346;-1.688;2022-09-14T07:18:46;10.30;99.90
28171;DHT22;15458;53.346;-1.688;2022-09-14T07:21:19;10.30;99.90
28171;DHT22;15458;53.346;-1.688;2022-09-14T07:23:48;10.40;99.90
28171;DHT22;15458;53.346;-1.688;2022-09-14T07:26:19;10.50;99.90
28171;DHT22;15458;53.346;-1.688;2022-09-14T07:28:48;10.50;99.90
28171;DHT22;15458;53.346;-1.688;2022-09-14T07:33:55;10.70;99.90
28171;DHT22;15458;53.346;-1.688;2022-09-14T07:36:35;10.80;99.90
28171;DHT22;15458;53.346;-1.688;2022-09-14T07:39:04;11.00;99.90
28171;DHT22;15458;53.346;-1.688;2022-09-14T07:41:30;11.10;99.90
28171;DHT22;15458;53.346;-1.688;2022-09-14T07:43:59;11.20;99.90
28171;DHT22;15458;53.346;-1.688;2022-09-14T07:46:29;11.30;99.90
28171;DHT22;15458;53.346;-1.688;2022-09-14T07:49:02;11.40;99.90
28171;DHT22;15458;53.346;-1.688;2022-09-14T07:51:30;11.60;99.90
28171;DHT22;15458;53.346;-1.688;2022-09-14T07:53:59;11.70;99.90
28171;DHT22;15458;53.346;-1.688;2022-09-14T07:56:26;11.90;99.90
28171;DHT22;15458;53.346;-1.688;2022-09-14T07:58:55;12.00;99.90
28171;DHT22;15458;53.346;-1.688;2022-09-14T08:01:22;12.10;99.90
28171;DHT22;15458;53.346;-1.688;2022-09-14T08:03:50;12.20;99.90
28171;DHT22;15458;53.346;-1.688;2022-09-14T08:06:27;12.20;99.90
28171;DHT22;15458;53.346;-1.688;2022-09-14T08:08:55;12.40;99.90
28171;DHT22;15458;53.346;-1.688;2022-09-14T08:11:25;12.50;99.90
28171;DHT22;15458;53.346;-1.688;2022-09-14T08:13:58;12.60;99.90
28171;DHT22;15458;53.346;-1.688;2022-09-14T08:16:25;12.70;99.90
28171;DHT22;15458;53.346;-1.688;2022-09-14T08:18:58;12.80;99.90
28171;DHT22;15458;53.346;-1.688;2022-09-14T08:21:27;12.90;99.90
28171;DHT22;15458;53.346;-1.688;2022-09-14T08:23:53;13.00;99.90
28171;DHT22;15458;53.346;-1.688;2022-09-14T08:26:21;13.00;99.90
28171;DHT22;15458;53.346;-1.688;2022-09-14T08:28:49;13.20;99.90
28171;DHT22;15458;53.346;-1.688;2022-09-14T08:31:20;13.20;99.90
28171;DHT22;15458;53.346;-1.688;2022-09-14T08:33:48;13.30;99.90
28171;DHT22;15458;53.346;-1.688;2022-09-14T08:36:18;13.40;99.90
28171;DHT22;15458;53.346;-1.688;2022-09-14T08:38:45;13.60;99.90
28171;DHT22;15458;53.346;-1.688;2022-09-14T08:41:30;13.70;99.90
28171;DHT22;15458;53.346;-1.688;2022-09-14T08:44:12;13.80;99.90
28171;DHT22;15458;53.346;-1.688;2022-09-14T08:47:01;14.00;99.90
28171;DHT22;15458;53.346;-1.688;2022-09-14T08:50:13;14.10;99.90
28171;DHT22;15458;53.346;-1.688;2022-09-14T08:54:55;14.30;99.90
28171;DHT22;15458;53.346;-1.688;2022-09-14T08:57:42;14.40;99.90
28171;DHT22;15458;53.346;-1.688;2022-09-14T09:00:14;14.40;99.90
28171;DHT22;15458;53.346;-1.688;2022-09-14T09:10:37;14.70;99.90
28171;DHT22;15458;53.346;-1.688;2022-09-14T09:13:05;14.80;99.90
28171;DHT22;15458;53.346;-1.688;2022-09-14T09:15:56;14.80;99.90
28171;DHT22;15458;53.346;-1.688;2022-09-14T09:23:35;15.20;99.90
28171;DHT22;15458;53.346;-1.688;2022-09-14T09:26:06;15.20;99.90
28171;DHT22;15458;53.346;-1.688;2022-09-14T09:28:32;15.40;99.90
28171;DHT22;15458;53.346;-1.688;2022-09-14T09:31:05;15.60;99.90
28171;DHT22;15458;53.346;-1.688;2022-09-14T09:33:31;15.70;99.90
28171;DHT22;15458;53.346;-1.688;2022-09-14T09:36:06;15.80;99.90
28171;DHT22;15458;53.346;-1.688;2022-09-14T09:38:33;16.10;99.90
28171;DHT22;15458;53.346;-1.688;2022-09-14T09:41:15;16.20;99.90
28171;DHT22;15458;53.346;-1.688;2022-09-14T09:44:08;16.40;99.90
28171;DHT22;15458;53.346;-1.688;2022-09-14T09:46:47;16.50;99.90
28171;DHT22;15458;53.346;-1.688;2022-09-14T09:49:35;16.60;99.90
28171;DHT22;15458;53.346;-1.688;2022-09-14T09:52:13;16.80;99.90
28171;DHT22;15458;53.346;-1.688;2022-09-14T09:54:53;17.00;99.90
28171;DHT22;15458;53.346;-1.688;2022-09-14T10:00:08;17.40;99.90
28171;DHT22;15458;53.346;-1.688;2022-09-14T10:02:36;17.60;99.90
28171;DHT22;15458;53.346;-1.688;2022-09-14T10:05:29;17.70;99.90
28171;DHT22;15458;53.346;-1.688;2022-09-14T10:08:03;17.80;99.90
28171;DHT22;15458;53.346;-1.688;2022-09-14T10:13:05;17.70;99.90
28171;DHT22;15458;53.346;-1.688;2022-09-14T10:15:41;17.60;99.90
28171;DHT22;15458;53.346;-1.688;2022-09-14T10:25:45;17.40;99.90
28171;DHT22;15458;53.346;-1.688;2022-09-14T10:28:27;17.30;99.90
28171;DHT22;15458;53.346;-1.688;2022-09-14T10:31:01;17.20;99.90
28171;DHT22;15458;53.346;-1.688;2022-09-14T10:33:29;17.30;99.90
28171;DHT22;15458;53.346;-1.688;2022-09-14T10:38:24;17.20;99.90
28171;DHT22;15458;53.346;-1.688;2022-09-14T10:40:59;17.20;99.90
28171;DHT22;15458;53.346;-1.688;2022-09-14T10:43:52;17.20;99.90
28171;DHT22;15458;53.346;-1.688;2022-09-14T10:46:28;17.30;99.90
28171;DHT22;15458;53.346;-1.688;2022-09-14T10:49:15;17.40;99.90
28171;DHT22;15458;53.346;-1.688;2022-09-14T11:02:26;18.20;99.90
28171;DHT22;15458;53.346;-1.688;2022-09-14T11:05:08;18.30;99.90
28171;DHT22;15458;53.346;-1.688;2022-09-14T11:07:38;18.30;99.90
28171;DHT22;15458;53.346;-1.688;2022-09-14T11:10:10;18.10;99.90
28171;DHT22;15458;53.346;-1.688;2022-09-14T11:15:37;17.90;99.90
28171;DHT22;15458;53.346;-1.688;2022-09-14T11:28:50;17.10;99.90
28171;DHT22;15458;53.346;-1.688;2022-09-14T11:33:44;16.70;99.90
28171;DHT22;15458;53.346;-1.688;2022-09-14T11:36:17;16.70;99.90
28171;DHT22;15458;53.346;-1.688;2022-09-14T11:38:48;16.60;99.90
28171;DHT22;15458;53.346;-1.688;2022-09-14T11:43:49;16.60;99.90
28171;DHT22;15458;53.346;-1.688;2022-09-14T11:46:22;16.60;99.90
28171;DHT22;15458;53.346;-1.688;2022-09-14T11:49:00;16.60;99.90
28171;DHT22;15458;53.346;-1.688;2022-09-14T11:51:38;16.50;99.90
28171;DHT22;15458;53.346;-1.688;2022-09-14T11:54:13;16.50;99.90
28171;DHT22;15458;53.346;-1.688;2022-09-14T11:56:41;16.50;99.90
28171;DHT22;15458;53.346;-1.688;2022-09-14T11:59:11;16.50;99.90
28171;DHT22;15458;53.346;-1.688;2022-09-14T12:01:52;16.50;99.90
28171;DHT22;15458;53.346;-1.688;2022-09-14T12:04:18;16.40;99.90
28171;DHT22;15458;53.346;-1.688;2022-09-14T12:06:45;16.40;99.90
28171;DHT22;15458;53.346;-1.688;2022-09-14T12:12:03;16.40;99.90
28171;DHT22;15458;53.346;-1.688;2022-09-14T12:14:35;16.40;99.90
28171;DHT22;15458;53.346;-1.688;2022-09-14T12:17:15;16.50;99.90
28171;DHT22;15458;53.346;-1.688;2022-09-14T12:19:45;16.60;99.90
28171;DHT22;15458;53.346;-1.688;2022-09-14T12:22:26;16.60;99.90
28171;DHT22;15458;53.346;-1.688;2022-09-14T12:27:27;16.80;99.90
28171;DHT22;15458;53.346;-1.688;2022-09-14T12:29:53;16.90;99.90
28171;DHT22;15458;53.346;-1.688;2022-09-14T12:32:39;17.00;99.90
28171;DHT22;15458;53.346;-1.688;2022-09-14T12:37:52;17.20;99.90
28171;DHT22;15458;53.346;-1.688;2022-09-14T12:42:45;17.50;99.90
28171;DHT22;15458;53.346;-1.688;2022-09-14T12:47:54;18.20;99.90
28171;DHT22;15458;53.346;-1.688;2022-09-14T12:50:20;18.70;99.80
28171;DHT22;15458;53.346;-1.688;2022-09-14T12:55:38;19.70;97.50
28171;DHT22;15458;53.346;-1.688;2022-09-14T13:03:31;20.60;93.00
28171;DHT22;15458;53.346;-1.688;2022-09-14T13:06:00;20.80;92.10
28171;DHT22;15458;53.346;-1.688;2022-09-14T13:08:26;21.10;91.80
28171;DHT22;15458;53.346;-1.688;2022-09-14T13:10:52;21.50;91.10
28171;DHT22;15458;53.346;-1.688;2022-09-14T13:13:24;21.60;88.10
28171;DHT22;15458;53.346;-1.688;2022-09-14T13:15:52;21.70;86.10
28171;DHT22;15458;53.346;-1.688;2022-09-14T13:20:52;21.80;84.60
28171;DHT22;15458;53.346;-1.688;2022-09-14T13:23:26;22.00;83.70
28171;DHT22;15458;53.346;-1.688;2022-09-14T13:25:51;22.10;82.30
28171;DHT22;15458;53.346;-1.688;2022-09-14T13:28:17;22.20;81.10
28171;DHT22;15458;53.346;-1.688;2022-09-14T13:30:57;22.20;79.90
28171;DHT22;15458;53.346;-1.688;2022-09-14T13:33:23;22.30;79.60
28171;DHT22;15458;53.346;-1.688;2022-09-14T13:35:50;22.40;78.80
28171;DHT22;15458;53.346;-1.688;2022-09-14T13:38:18;22.50;79.10
28171;DHT22;15458;53.346;-1.688;2022-09-14T13:40:45;22.70;77.10
28171;DHT22;15458;53.346;-1.688;2022-09-14T13:43:14;22.70;76.30
28171;DHT22;15458;53.346;-1.688;2022-09-14T13:45:41;22.90;75.70
28171;DHT22;15458;53.346;-1.688;2022-09-14T13:48:07;23.00;74.50
28171;DHT22;15458;53.346;-1.688;2022-09-14T13:50:33;23.00;74.50
28171;DHT22;15458;53.346;-1.688;2022-09-14T13:52:58;23.00;74.00
28171;DHT22;15458;53.346;-1.688;2022-09-14T14:00:31;22.90;73.90
28171;DHT22;15458;53.346;-1.688;2022-09-14T14:03:01;22.90;73.70
28171;DHT22;15458;53.346;-1.688;2022-09-14T14:05:28;23.00;73.60
28171;DHT22;15458;53.346;-1.688;2022-09-14T14:07:54;22.80;73.00
28171;DHT22;15458;53.346;-1.688;2022-09-14T14:10:23;22.70;73.10
28171;DHT22;15458;53.346;-1.688;2022-09-14T14:12:49;22.40;73.20
28171;DHT22;15458;53.346;-1.688;2022-09-14T14:17:40;22.30;74.00
28171;DHT22;15458;53.346;-1.688;2022-09-14T14:23:13;22.00;73.50
28171;DHT22;15458;53.346;-1.688;2022-09-14T14:25:43;21.80;73.70
28171;DHT22;15458;53.346;-1.688;2022-09-14T14:28:22;21.70;74.00
28171;DHT22;15458;53.346;-1.688;2022-09-14T14:30:49;21.70;73.90
28171;DHT22;15458;53.346;-1.688;2022-09-14T14:33:16;22.00;73.60
28171;DHT22;15458;53.346;-1.688;2022-09-14T14:35:45;22.20;73.10
28171;DHT22;15458;53.346;-1.688;2022-09-14T14:38:12;22.40;72.50
28171;DHT22;15458;53.346;-1.688;2022-09-14T14:40:38;22.70;71.80
28171;DHT22;15458;53.346;-1.688;2022-09-14T14:43:05;22.80;71.10
28171;DHT22;15458;53.346;-1.688;2022-09-14T14:45:31;22.80;70.90
28171;DHT22;15458;53.346;-1.688;2022-09-14T14:47:57;23.00;70.60
28171;DHT22;15458;53.346;-1.688;2022-09-14T14:50:24;23.10;70.30
28171;DHT22;15458;53.346;-1.688;2022-09-14T14:52:51;23.20;70.00
28171;DHT22;15458;53.346;-1.688;2022-09-14T14:55:17;23.40;69.60
28171;DHT22;15458;53.346;-1.688;2022-09-14T14:57:44;23.50;69.00
28171;DHT22;15458;53.346;-1.688;2022-09-14T15:00:20;23.50;68.90
28171;DHT22;15458;53.346;-1.688;2022-09-14T15:02:46;23.70;68.50
28171;DHT22;15458;53.346;-1.688;2022-09-14T15:05:12;23.80;67.90
28171;DHT22;15458;53.346;-1.688;2022-09-14T15:07:38;24.00;67.90
28171;DHT22;15458;53.346;-1.688;2022-09-14T15:10:04;24.20;67.20
28171;DHT22;15458;53.346;-1.688;2022-09-14T15:12:30;24.10;66.80
28171;DHT22;15458;53.346;-1.688;2022-09-14T15:14:56;24.00;66.30
28171;DHT22;15458;53.346;-1.688;2022-09-14T15:17:21;24.00;66.50
28171;DHT22;15458;53.346;-1.688;2022-09-14T15:19:47;24.00;66.40
28171;DHT22;15458;53.346;-1.688;2022-09-14T15:22:12;23.80;66.30
28171;DHT22;15458;53.346;-1.688;2022-09-14T15:24:38;23.50;66.70
28171;DHT22;15458;53.346;-1.688;2022-09-14T15:27:04;23.10;67.20
28171;DHT22;15458;53.346;-1.688;2022-09-14T15:29:29;22.80;68.00
28171;DHT22;15458;53.346;-1.688;2022-09-14T15:31:58;22.50;68.70
28171;DHT22;15458;53.346;-1.688;2022-09-14T15:34:23;22.30;69.30
28171;DHT22;15458;53.346;-1.688;2022-09-14T15:36:50;22.10;69.90
28171;DHT22;15458;53.346;-1.688;2022-09-14T15:39:16;21.90;70.50
28171;DHT22;15458;53.346;-1.688;2022-09-14T15:41:42;21.70;71.00
28171;DHT22;15458;53.346;-1.688;2022-09-14T15:44:09;21.60;71.50
28171;DHT22;15458;53.346;-1.688;2022-09-14T15:46:36;21.40;72.00
28171;DHT22;15458;53.346;-1.688;2022-09-14T15:49:06;21.30;72.30
28171;DHT22;15458;53.346;-1.688;2022-09-14T15:51:33;21.20;72.70
28171;DHT22;15458;53.346;-1.688;2022-09-14T15:53:59;21.10;73.10
28171;DHT22;15458;53.346;-1.688;2022-09-14T15:56:25;21.00;73.50
28171;DHT22;15458;53.346;-1.688;2022-09-14T15:58:51;20.80;73.60
28171;DHT22;15458;53.346;-1.688;2022-09-14T16:01:17;20.60;73.90
28171;DHT22;15458;53.346;-1.688;2022-09-14T16:03:42;20.40;74.20
28171;DHT22;15458;53.346;-1.688;2022-09-14T16:06:09;20.30;74.70
28171;DHT22;15458;53.346;-1.688;2022-09-14T16:08:35;20.20;75.00
28171;DHT22;15458;53.346;-1.688;2022-09-14T16:11:01;20.10;75.40
28171;DHT22;15458;53.346;-1.688;2022-09-14T16:13:27;20.00;75.70
28171;DHT22;15458;53.346;-1.688;2022-09-14T16:16:06;19.90;76.10
28171;DHT22;15458;53.346;-1.688;2022-09-14T16:18:32;19.80;76.30
28171;DHT22;15458;53.346;-1.688;2022-09-14T16:23:34;19.80;76.80
28171;DHT22;15458;53.346;-1.688;2022-09-14T16:26:03;19.70;76.80
28171;DHT22;15458;53.346;-1.688;2022-09-14T16:28:29;19.60;77.20
28171;DHT22;15458;53.346;-1.688;2022-09-14T16:31:02;19.50;77.50
28171;DHT22;15458;53.346;-1.688;2022-09-14T16:33:28;19.40;77.90
28171;DHT22;15458;53.346;-1.688;2022-09-14T16:36:00;19.30;78.10
28171;DHT22;15458;53.346;-1.688;2022-09-14T16:38:26;19.30;78.40
28171;DHT22;15458;53.346;-1.688;2022-09-14T16:40:56;19.20;78.60
28171;DHT22;15458;53.346;-1.688;2022-09-14T16:43:22;19.20;78.90
28171;DHT22;15458;53.346;-1.688;2022-09-14T16:45:48;19.00;79.30
28171;DHT22;15458;53.346;-1.688;2022-09-14T16:48:16;19.00;79.80
28171;DHT22;15458;53.346;-1.688;2022-09-14T16:50:41;18.90;80.20
28171;DHT22;15458;53.346;-1.688;2022-09-14T16:53:07;18.80;80.60
28171;DHT22;15458;53.346;-1.688;2022-09-14T16:55:32;18.70;80.80
28171;DHT22;15458;53.346;-1.688;2022-09-14T16:57:58;18.70;81.20
28171;DHT22;15458;53.346;-1.688;2022-09-14T17:00:24;18.60;81.50
28171;DHT22;15458;53.346;-1.688;2022-09-14T17:02:52;18.50;81.70
28171;DHT22;15458;53.346;-1.688;2022-09-14T17:05:18;18.40;82.10
28171;DHT22;15458;53.346;-1.688;2022-09-14T17:07:43;18.40;82.60
28171;DHT22;15458;53.346;-1.688;2022-09-14T17:10:09;18.30;82.90
28171;DHT22;15458;53.346;-1.688;2022-09-14T17:12:35;18.30;83.20
28171;DHT22;15458;53.346;-1.688;2022-09-14T17:15:00;18.20;83.50
28171;DHT22;15458;53.346;-1.688;2022-09-14T17:17:26;18.00;83.90
28171;DHT22;15458;53.346;-1.688;2022-09-14T17:19:51;18.00;84.40
28171;DHT22;15458;53.346;-1.688;2022-09-14T17:22:17;17.90;84.80
28171;DHT22;15458;53.346;-1.688;2022-09-14T17:24:43;17.80;85.40
28171;DHT22;15458;53.346;-1.688;2022-09-14T17:27:08;17.80;85.80
28171;DHT22;15458;53.346;-1.688;2022-09-14T17:29:35;17.80;86.10
28171;DHT22;15458;53.346;-1.688;2022-09-14T17:32:03;17.70;86.50
28171;DHT22;15458;53.346;-1.688;2022-09-14T17:34:29;17.70;86.80
28171;DHT22;15458;53.346;-1.688;2022-09-14T17:36:55;17.60;87.20
28171;DHT22;15458;53.346;-1.688;2022-09-14T17:39:21;17.40;87.70
28171;DHT22;15458;53.346;-1.688;2022-09-14T17:41:46;17.40;88.30
28171;DHT22;15458;53.346;-1.688;2022-09-14T17:44:12;17.30;88.80